메인 페이지
METAR-TAF:

METAR-TAF

공항 :

제네바 국제공항

제네바, 스위스

위도: 46-15N, 경도: 006-08E, 고도: 420m

현재 날씨관측

예보는 20분 전, 09:20시(UTC)에 발표되었습니다.
북북동3kt
온도 5°C
습도 87%
기압 1010 hPa
시정: 7000m
고도 1100ft 상공 흐림

METAR: LSGG 210920Z 02003KT 7000 OVC011 05/03 Q1010 NOSIG

시각: 10:40 (09:40 UTC)

예보

예보는 1 시간 15분 전, 08:25시(UTC)에 발표되었습니다.
예보 대상 시간: 21일 09시부터 22일 15시까지 (UTC)
여러 방향의 바람 2kt
시정: 8000m
고도 1200ft 상공 구름 많음
전환 중
21일 10시부터 21일 12시까지 (UTC)
고도 7000ft 상공 구름 보통
확률 30% :
일시적
21일 20시부터 22일 01시까지 (UTC)
고도 7000ft 상공 구름 많음
소나기
전환 중
21일 09시부터 21일 12시까지 (UTC)
북동7kt

TAF: LSGG 210825Z 2109/2215 VRB02KT 8000 BKN012 TX07/2114Z TN03/2206Z TX07/2214Z BECMG 2110/2112 SCT070 PROB30 TEMPO 2120/2201 SHRA BKN070 BECMG 2109/2112 05007KT

4,000개 이상의 공항 관측 자료 및 예보 (METAR 및 TAF 보고).

지도상에서 검색 가능한 기상관측소가 노란 점과 빨간 점으로 표시되어 있습니다.

기상관측소 명을 보려면 표시 위로 마우스를 이동하세요.

날씨 관측과 예보를 보려면 클릭하세요.

지도 변경 : 확대하려면 엑스 표시가 있는 녹색 버튼, 축소하려면 빼기 표시가 있는 녹색 버튼, 다음 페이지의 지도를 보려면 녹색 화살표를 클릭하세요.


METAR-TAF: